Time;durP1;ratioP1;P1;durP2;ratioP2;P2;SDS_P1;SDS_P2;PMS_P1;PMS_P2;Temp;Humidity;BMP_temperature;BMP_pressure;BME280_temperature;BME280_humidity;BME280_pressure;Samples;Min_cycle;Max_cycle;Signal;HPM_P1;HPM_P2
2021/01/11 00:00:27;;;;;;;34.13;17.23;;;3.70;90.90;;;3.81;74.48;101180.03;4994899;28;20570;-86
2021/01/11 00:02:54;;;;;;;33.88;17.17;;;3.90;90.60;;;3.78;74.35;101172.22;4994783;28;20046;-86
2021/01/11 00:05:21;;;;;;;35.53;16.98;;;3.60;90.50;;;3.84;74.35;101169.88;4993901;28;20057;-86
2021/01/11 00:07:48;;;;;;;31.67;16.13;;;3.60;90.60;;;3.89;73.35;101169.50;4994529;28;20682;-86
2021/01/11 00:10:16;;;;;;;37.70;17.00;;;3.60;90.60;;;3.86;73.69;101165.19;4995432;28;20654;-86
2021/01/11 00:12:44;;;;;;;39.63;17.80;;;3.60;90.40;;;3.82;73.37;101163.75;4994856;28;20047;-86
2021/01/11 00:15:14;;;;;;;35.33;17.25;;;3.60;90.40;;;3.72;73.41;101150.19;4994785;28;20125;-86
2021/01/11 00:17:42;;;;;;;31.60;17.00;;;3.60;90.30;;;3.77;73.79;101152.53;4995032;28;20101;-86
2021/01/11 00:20:11;;;;;;;32.05;17.42;;;3.60;90.50;;;3.79;73.87;101164.00;4994589;28;20491;-86
2021/01/11 00:22:38;;;;;;;33.47;17.15;;;3.60;90.50;;;3.70;74.12;101167.44;4995548;28;20114;-86
2021/01/11 00:25:06;;;;;;;36.13;17.23;;;3.60;90.50;;;3.65;74.06;101157.03;4994387;28;20077;-86
2021/01/11 00:27:34;;;;;;;29.58;16.23;;;3.50;90.40;;;3.68;73.61;101155.94;4994427;28;20094;-86
2021/01/11 00:30:01;;;;;;;35.33;17.38;;;3.50;90.60;;;3.76;73.77;101160.72;4994799;28;20132;-86
2021/01/11 00:32:28;;;;;;;34.40;16.67;;;3.50;90.50;;;3.73;73.92;101167.19;4995099;28;20108;-86
2021/01/11 00:34:54;;;;;;;32.72;16.73;;;3.50;90.50;;;3.67;73.82;101165.00;4976875;28;20054;-86
2021/01/11 00:37:22;;;;;;;32.58;17.38;;;3.50;90.60;;;3.71;74.02;101161.06;4993974;28;20042;-86
2021/01/11 00:39:49;;;;;;;31.95;16.35;;;3.50;90.80;;;3.70;73.71;101167.44;4994056;28;20046;-86
2021/01/11 00:42:16;;;;;;;37.75;17.30;;;3.50;90.80;;;3.72;73.59;101160.94;4994036;28;20411;-86
2021/01/11 00:44:45;;;;;;;36.00;17.42;;;3.50;90.80;;;3.71;73.99;101167.34;4977514;28;20105;-86
2021/01/11 00:47:12;;;;;;;37.83;17.70;;;3.50;90.90;;;3.68;73.88;101169.41;4994663;28;20069;-86
2021/01/11 00:49:40;;;;;;;35.58;17.70;;;3.50;90.90;;;3.66;73.67;101168.69;4995029;28;20046;-86
2021/01/11 00:52:07;;;;;;;32.08;16.90;;;3.50;90.80;;;3.67;74.65;101167.69;4978451;28;20197;-86
2021/01/11 00:54:35;;;;;;;33.53;17.35;;;3.50;91.00;;;3.63;74.58;101163.53;4976634;28;20057;-86
2021/01/11 00:57:07;;;;;;;34.97;17.95;;;3.60;91.00;;;3.66;74.82;101164.16;4976729;28;20046;-86
2021/01/11 00:59:58;;;;;;;35.47;17.52;;;3.50;90.90;;;3.61;74.33;101173.56;4993324;28;20506;-86
2021/01/11 01:02:41;;;;;;;34.65;17.55;;;3.50;90.50;;;3.60;74.53;101164.66;4977078;28;20050;-86
2021/01/11 01:05:11;;;;;;;35.90;17.58;;;3.50;90.90;;;3.60;74.59;101170.03;4994215;28;20204;-86
2021/01/11 01:07:38;;;;;;;31.42;17.05;;;3.50;91.00;;;3.58;74.77;101176.50;4994380;28;20134;-86
2021/01/11 01:10:06;;;;;;;33.97;18.20;;;3.50;91.00;;;3.60;74.47;101179.91;4994706;28;20046;-86
2021/01/11 01:12:33;;;;;;;37.30;17.90;;;3.50;90.80;;;3.59;74.61;101180.91;4994573;28;20070;-86
2021/01/11 01:15:01;;;;;;;31.70;16.95;;;3.50;90.80;;;3.55;74.14;101179.44;4993733;28;20038;-86
2021/01/11 01:17:28;;;;;;;33.17;17.63;;;3.50;90.30;;;3.65;74.27;101169.66;4993899;28;20082;-86
2021/01/11 01:19:54;;;;;;;35.92;17.30;;;3.50;90.50;;;3.61;74.27;101170.88;4994240;28;20073;-86
2021/01/11 01:22:21;;;;;;;35.65;17.65;;;3.50;90.60;;;3.66;74.26;101163.28;4994317;28;20128;-86
2021/01/11 01:24:48;;;;;;;34.05;17.48;;;3.60;90.60;;;3.70;74.44;101159.38;4994702;28;20070;-86
2021/01/11 01:27:14;;;;;;;36.50;17.92;;;3.60;90.40;;;3.69;73.84;101157.66;4993516;28;20610;-86
2021/01/11 01:29:41;;;;;;;40.25;18.08;;;3.60;90.50;;;3.64;74.61;101163.41;4994252;28;20046;-86
2021/01/11 01:32:09;;;;;;;31.20;16.95;;;3.60;90.30;;;3.68;73.72;101155.94;4993842;28;20422;-86
2021/01/11 01:34:36;;;;;;;32.58;17.70;;;3.60;90.20;;;3.70;73.69;101160.22;4994076;28;20120;-86
2021/01/11 01:37:02;;;;;;;33.63;18.13;;;3.60;90.20;;;3.68;73.65;101155.94;4976372;28;20100;-86
2021/01/11 01:39:29;;;;;;;38.38;17.92;;;3.60;90.10;;;3.76;73.90;101166.09;4993600;28;20113;-86
2021/01/11 01:41:56;;;;;;;38.25;19.13;;;3.60;89.80;;;3.74;73.44;101171.59;4976812;28;20046;-85
2021/01/11 01:44:23;;;;;;;33.42;17.73;;;3.60;90.00;;;3.70;73.62;101156.69;4994112;28;20078;-86
2021/01/11 01:46:49;;;;;;;38.65;18.33;;;3.50;90.00;;;3.69;73.55;101171.09;4993979;28;20077;-86
2021/01/11 01:49:17;;;;;;;36.20;18.20;;;3.60;90.20;;;3.64;73.59;101166.09;4993454;28;20533;-86
2021/01/11 01:51:44;;;;;;;36.15;19.17;;;3.60;90.00;;;3.68;73.46;101167.56;4993300;28;20038;-86
2021/01/11 01:54:12;;;;;;;32.65;17.70;;;3.50;90.00;;;3.69;73.88;101169.28;4993560;28;20125;-86
2021/01/11 01:56:39;;;;;;;38.05;18.77;;;3.50;90.30;;;3.68;73.74;101172.09;4993427;28;20061;-86
2021/01/11 01:59:08;;;;;;;37.20;18.30;;;3.60;90.10;;;3.69;74.32;101154.94;4994016;28;20130;-86
2021/01/11 02:01:35;;;;;;;34.97;18.70;;;3.50;90.20;;;3.74;73.83;101162.69;4993586;28;20464;-86
2021/01/11 02:04:03;;;;;;;35.13;18.30;;;3.60;90.10;;;3.79;73.59;101157.75;4994239;28;20046;-86
2021/01/11 02:06:36;;;;;;;35.28;19.17;;;3.50;90.10;;;3.84;73.46;101155.56;4993531;28;20047;-86
2021/01/11 02:09:09;;;;;;;35.10;18.58;;;3.60;90.40;;;3.74;73.97;101152.75;4994403;28;20035;-86
2021/01/11 02:11:48;;;;;;;34.28;18.77;;;3.60;90.50;;;3.78;73.92;101151.53;4997607;28;20547;-86
2021/01/11 02:14:37;;;;;;;35.78;19.05;;;3.60;90.40;;;3.79;73.83;101153.25;4997541;28;20093;-86
2021/01/11 02:17:09;;;;;;;35.72;19.10;;;3.60;90.20;;;3.71;74.15;101161.94;4997888;28;20050;-86
2021/01/11 02:20:37;;;;;;;33.78;18.08;;;3.60;90.10;;;3.75;73.33;101165.25;4997920;28;20074;-86
2021/01/11 02:23:28;;;;;;;36.08;18.67;;;3.60;90.10;;;3.72;74.08;101163.63;4998274;28;20044;-86
2021/01/11 02:26:09;;;;;;;36.08;18.55;;;3.60;90.10;;;3.74;74.02;101155.44;4997835;28;20058;-86
2021/01/11 02:29:02;;;;;;;37.00;19.08;;;3.60;90.10;;;3.71;73.51;101155.69;4997792;28;20050;-86
2021/01/11 02:31:31;;;;;;;36.88;19.17;;;3.60;90.10;;;3.70;74.06;101154.84;4997668;28;20049;-86
2021/01/11 02:34:00;;;;;;;33.30;18.42;;;3.60;90.20;;;3.69;73.66;101153.16;4997336;28;20474;-86
2021/01/11 02:36:28;;;;;;;36.65;19.50;;;3.60;90.10;;;3.69;74.09;101163.03;4997228;28;20077;-86
2021/01/11 02:38:56;;;;;;;39.92;20.17;;;3.60;90.00;;;3.69;74.11;101163.03;4979969;28;20049;-86
2021/01/11 02:41:23;;;;;;;36.03;19.02;;;3.60;90.00;;;3.68;73.59;101164.03;4997420;28;20467;-86
2021/01/11 02:43:50;;;;;;;35.95;19.73;;;3.60;90.00;;;3.70;73.43;101159.38;4997154;28;20039;-86
2021/01/11 02:46:16;;;;;;;37.00;19.45;;;3.60;90.00;;;3.70;73.50;101157.53;4997373;28;20122;-86
2021/01/11 02:48:54;;;;;;;35.05;19.20;;;3.60;89.80;;;3.62;73.83;101154.59;4997581;28;20085;-86
2021/01/11 02:51:31;;;;;;;34.30;18.00;;;3.60;89.90;;;3.70;73.63;101164.75;4997341;28;20375;-86
2021/01/11 02:54:14;;;;;;;33.72;18.83;;;3.50;89.80;;;3.71;74.05;101151.19;4997301;28;20061;-86
2021/01/11 02:56:48;;;;;;;35.83;18.83;;;3.60;89.80;;;3.75;72.94;101153.59;4996909;28;20042;-86
2021/01/11 02:59:20;;;;;;;37.70;18.73;;;3.50;89.70;;;3.71;73.72;101155.69;4998043;28;20066;-86
2021/01/11 03:01:53;;;;;;;36.88;18.50;;;3.50;90.00;;;3.70;73.47;101160.22;4997805;28;20059;-86
2021/01/11 03:04:26;;;;;;;35.63;18.58;;;3.50;90.00;;;3.74;73.85;101159.97;4997451;28;20070;-86
2021/01/11 03:06:59;;;;;;;36.90;18.60;;;3.50;90.10;;;3.74;73.69;101146.53;4996647;28;20129;-86
2021/01/11 03:09:26;;;;;;;36.03;19.20;;;3.50;90.00;;;3.70;73.61;101130.59;4997271;28;20077;-86
2021/01/11 03:11:53;;;;;;;37.45;18.73;;;3.50;89.80;;;3.72;72.92;101138.56;4996755;28;20074;-86
2021/01/11 03:14:20;;;;;;;35.75;19.23;;;3.60;89.80;;;3.68;73.58;101132.56;4996888;28;20044;-86
2021/01/11 03:16:47;;;;;;;35.78;20.23;;;3.50;89.80;;;3.62;73.45;101124.16;4996889;28;20066;-86
2021/01/11 03:19:14;;;;;;;35.25;18.35;;;3.70;89.90;;;3.62;73.68;101129.53;4996736;28;20052;-86
2021/01/11 03:21:42;;;;;;;38.28;20.23;;;3.50;89.80;;;3.69;73.96;101137.00;4995400;28;20120;-86
2021/01/11 03:24:09;;;;;;;35.55;19.73;;;3.50;89.80;;;3.67;73.89;101133.53;4996618;28;20093;-86
2021/01/11 03:26:37;;;;;;;41.00;20.05;;;3.50;89.90;;;3.66;73.74;101125.63;4996911;28;20102;-86
2021/01/11 03:29:04;;;;;;;38.80;20.25;;;3.50;89.90;;;3.68;73.50;101113.72;4996465;28;20133;-86
2021/01/11 03:31:31;;;;;;;39.40;21.55;;;3.50;90.00;;;3.62;73.34;101108.00;4997304;28;20077;-86
2021/01/11 03:33:58;;;;;;;36.75;20.92;;;3.50;90.00;;;3.61;74.15;101098.22;4996756;28;20699;-86
2021/01/11 03:36:24;;;;;;;38.10;21.17;;;3.50;90.20;;;3.61;73.54;101100.91;4996858;28;20556;-86
2021/01/11 03:38:52;;;;;;;41.00;22.70;;;3.50;90.00;;;3.64;74.21;101081.81;4997403;28;20046;-86
2021/01/11 03:41:20;;;;;;;42.75;22.50;;;3.50;90.00;;;3.69;73.60;101087.66;4996771;28;20529;-86
2021/01/11 03:43:46;;;;;;;40.72;22.75;;;3.50;89.90;;;3.71;73.83;101081.19;4996962;28;20049;-86
2021/01/11 03:46:16;;;;;;;41.60;22.70;;;3.50;90.20;;;3.74;74.02;101088.16;4996087;28;20129;-86
2021/01/11 03:48:45;;;;;;;48.60;23.15;;;3.50;90.30;;;3.70;73.79;101090.22;4997104;28;20840;-86
2021/01/11 03:51:13;;;;;;;47.40;24.58;;;3.50;90.10;;;3.71;73.29;101097.34;4996996;28;20162;-86
2021/01/11 03:53:40;;;;;;;43.17;24.38;;;3.50;90.00;;;3.65;73.13;101102.34;4978588;28;20050;-86
2021/01/11 03:56:08;;;;;;;46.15;24.33;;;3.60;89.40;;;3.63;73.95;101110.56;4996132;28;20042;-86
2021/01/11 03:58:36;;;;;;;44.50;24.65;;;3.50;89.70;;;3.65;73.04;101108.59;4995808;28;20081;-86
2021/01/11 04:01:03;;;;;;;53.58;26.00;;;3.50;89.50;;;3.63;73.00;101096.25;4995697;28;20566;-86
2021/01/11 04:03:30;;;;;;;48.53;26.35;;;3.50;89.70;;;3.66;73.54;101107.63;4996621;28;20125;-86
2021/01/11 04:05:58;;;;;;;49.05;25.42;;;3.50;89.80;;;3.61;73.18;101101.75;4996043;28;20130;-86
2021/01/11 04:08:25;;;;;;;43.05;23.70;;;3.50;89.60;;;3.58;72.81;101101.13;4996383;28;20132;-86
2021/01/11 04:10:53;;;;;;;51.53;26.10;;;3.60;89.50;;;3.51;73.95;101101.66;4995886;28;20085;-86
2021/01/11 04:13:21;;;;;;;47.17;25.83;;;3.60;89.30;;;3.55;74.07;101091.50;4996156;28;20137;-86
2021/01/11 04:15:48;;;;;;;44.92;25.48;;;3.50;89.70;;;3.64;73.75;101085.38;4995817;28;20065;-86
2021/01/11 04:18:15;;;;;;;49.35;27.02;;;3.60;89.70;;;3.58;73.89;101090.38;4995854;28;20077;-86
2021/01/11 04:20:42;;;;;;;45.78;26.48;;;3.50;89.30;;;3.57;73.16;101088.69;4996053;28;20110;-86
2021/01/11 04:23:09;;;;;;;48.50;26.63;;;3.50;89.40;;;3.62;73.74;101081.94;4995616;28;20090;-86
2021/01/11 04:25:36;;;;;;;48.80;25.73;;;3.50;89.30;;;3.67;72.82;101085.09;4977878;28;20563;-86
2021/01/11 04:28:05;;;;;;;47.70;27.48;;;3.40;89.40;;;3.67;73.11;101093.16;4995571;28;20050;-86
2021/01/11 04:30:32;;;;;;;49.15;26.77;;;3.50;89.70;;;3.71;73.17;101093.78;4995735;28;20070;-86
2021/01/11 04:32:59;;;;;;;48.10;26.98;;;3.50;89.60;;;3.74;72.88;101096.22;4995405;28;20046;-86
2021/01/11 04:35:28;;;;;;;49.13;26.48;;;3.50;89.60;;;3.67;72.45;101100.41;4994935;28;20137;-86
2021/01/11 04:37:55;;;;;;;52.35;28.70;;;3.50;89.40;;;3.65;72.87;101105.03;4995389;28;20137;-86
2021/01/11 04:40:24;;;;;;;50.40;26.08;;;3.50;89.50;;;3.66;72.60;101104.94;4995466;28;20051;-86
2021/01/11 04:42:56;;;;;;;53.70;27.75;;;3.50;89.40;;;3.62;72.66;101113.41;4996151;28;20108;-86
2021/01/11 04:45:24;;;;;;;46.38;26.55;;;3.50;89.40;;;3.66;72.42;101115.69;4995929;28;20050;-86
2021/01/11 04:47:57;;;;;;;46.55;27.10;;;3.50;89.40;;;3.57;73.13;101111.06;4994731;28;20043;-86
2021/01/11 04:50:27;;;;;;;52.45;28.98;;;3.50;89.60;;;3.52;73.91;101098.00;4994704;28;20573;-86
2021/01/11 04:52:54;;;;;;;48.80;27.75;;;3.40;89.30;;;3.58;73.44;101106.53;4995390;28;20058;-86
2021/01/11 04:55:22;;;;;;;48.95;26.83;;;3.50;89.30;;;3.56;72.95;101111.19;4994696;28;20066;-86
2021/01/11 04:57:54;;;;;;;49.72;27.83;;;3.50;89.30;;;3.62;72.74;101102.63;4994652;28;20054;-86
2021/01/11 05:00:24;;;;;;;49.10;26.48;;;3.50;89.20;;;3.61;73.17;101100.91;4994993;28;20097;-86
2021/01/11 05:02:59;;;;;;;51.20;28.20;;;3.40;89.10;;;3.58;73.05;101095.75;4995491;28;20049;-86
2021/01/11 05:05:27;;;;;;;50.97;28.92;;;3.50;89.10;;;3.57;72.72;101094.06;4994957;28;20066;-86
2021/01/11 05:07:55;;;;;;;47.92;28.05;;;3.40;89.20;;;3.53;72.87;101096.16;4995104;28;20052;-86
2021/01/11 05:10:24;;;;;;;51.00;28.83;;;3.40;89.50;;;3.53;73.67;101091.59;4995299;28;20117;-86
2021/01/11 05:12:57;;;;;;;52.28;27.35;;;3.40;89.60;;;3.40;73.82;101101.66;4995388;28;20077;-86
2021/01/11 05:15:26;;;;;;;52.50;27.55;;;3.40;89.30;;;3.45;73.38;101090.53;4995025;28;20050;-85
2021/01/11 05:17:55;;;;;;;48.22;27.35;;;3.40;89.60;;;3.49;73.17;101082.06;4994985;28;20050;-86
2021/01/11 05:20:25;;;;;;;50.83;27.02;;;3.40;89.20;;;3.50;73.75;101083.81;4994832;28;20054;-86
2021/01/11 05:22:58;;;;;;;49.70;26.60;;;3.40;89.30;;;3.51;73.00;101081.97;4994788;28;20053;-86
2021/01/11 05:25:27;;;;;;;55.20;27.90;;;3.40;89.20;;;3.52;72.90;101081.84;4994267;28;20519;-86
2021/01/11 05:28:09;;;;;;;53.30;27.63;;;3.40;89.50;;;3.47;72.64;101073.28;4994973;28;20121;-86
2021/01/11 05:30:38;;;;;;;47.00;24.55;;;3.40;89.30;;;3.47;72.52;101078.66;4995345;28;20046;-86
2021/01/11 05:33:07;;;;;;;51.95;27.35;;;3.40;89.40;;;3.39;73.98;101070.38;4994721;28;20046;-86
2021/01/11 05:35:36;;;;;;;50.47;28.23;;;3.40;89.20;;;3.35;74.16;101079.66;4994818;28;20607;-86
2021/01/11 05:38:16;;;;;;;47.50;26.70;;;3.40;89.40;;;3.36;73.78;101083.22;4994669;28;20133;-86
2021/01/11 05:40:43;;;;;;;50.88;27.33;;;3.50;89.60;;;3.42;73.94;101078.16;4995130;28;20042;-86
2021/01/11 05:43:19;;;;;;;49.20;26.42;;;3.40;89.60;;;3.46;73.50;101082.31;4995645;28;20062;-86
2021/01/11 05:45:46;;;;;;;46.38;26.13;;;3.40;89.60;;;3.52;74.05;101087.22;4994209;28;20046;-86
2021/01/11 05:48:14;;;;;;;42.33;24.52;;;3.40;89.70;;;3.46;73.78;101082.31;4995011;28;20053;-86
2021/01/11 05:50:44;;;;;;;45.45;25.08;;;3.40;89.70;;;3.50;73.54;101073.03;4994906;28;20109;-86
2021/01/11 05:53:17;;;;;;;50.95;25.77;;;3.40;89.90;;;3.51;74.41;101063.13;4994831;28;20047;-86
2021/01/11 05:55:45;;;;;;;42.17;23.83;;;3.40;90.00;;;3.55;73.80;101047.59;4994646;28;20042;-86
2021/01/11 05:58:11;;;;;;;43.78;23.63;;;3.50;90.20;;;3.50;74.44;101043.44;4994987;28;20073;-86
2021/01/11 06:00:40;;;;;;;46.47;24.65;;;3.40;90.00;;;3.53;73.99;101040.47;4994673;28;20054;-86
2021/01/11 06:03:09;;;;;;;47.47;24.42;;;3.40;90.10;;;3.56;74.40;101030.44;4995372;28;20046;-86
2021/01/11 06:05:36;;;;;;;38.33;22.13;;;3.40;90.20;;;3.52;73.70;101036.09;4994738;28;20169;-85
2021/01/11 06:08:06;;;;;;;49.35;25.50;;;3.40;90.30;;;3.53;74.03;101040.47;4994642;28;20074;-85
2021/01/11 06:10:33;;;;;;;50.40;25.38;;;3.50;90.50;;;3.57;74.21;101034.84;4994566;28;20042;-85
2021/01/11 06:13:00;;;;;;;48.22;24.77;;;3.40;90.40;;;3.56;74.52;101028.63;4994948;28;20133;-86
2021/01/11 06:15:28;;;;;;;48.90;25.15;;;3.50;90.60;;;3.52;73.91;101038.78;4994497;28;20121;-86
2021/01/11 06:17:58;;;;;;;51.95;26.75;;;3.40;90.50;;;3.56;74.51;101038.50;4994175;28;20062;-86
2021/01/11 06:20:27;;;;;;;50.05;24.85;;;3.40;90.30;;;3.50;74.25;101035.38;4994775;28;20080;-85
2021/01/11 06:23:05;;;;;;;49.00;25.00;;;3.50;90.70;;;3.48;74.22;101031.94;4994282;28;20574;-86
2021/01/11 06:25:36;;;;;;;47.75;24.95;;;3.50;90.50;;;3.52;74.89;101036.09;4993895;28;20057;-86
2021/01/11 06:28:06;;;;;;;48.30;25.42;;;3.50;90.50;;;3.51;74.81;101036.22;4994499;28;20440;-86
2021/01/11 06:30:41;;;;;;;52.38;27.05;;;3.50;90.40;;;3.48;74.69;101036.47;4994443;28;20073;-86
2021/01/11 06:33:15;;;;;;;50.90;26.95;;;3.50;90.50;;;3.57;74.63;101030.31;4995135;28;20072;-85
2021/01/11 06:35:44;;;;;;;52.08;26.92;;;3.50;90.60;;;3.63;74.66;101027.13;4994168;28;20050;-85
2021/01/11 06:38:20;;;;;;;50.58;25.40;;;3.50;90.60;;;3.56;74.02;101035.81;4994615;28;20081;-84
2021/01/11 06:40:53;;;;;;;52.25;26.50;;;3.50;90.40;;;3.59;74.46;101020.28;4993121;28;20454;-90
2021/01/11 06:43:22;;;;;;;47.40;24.70;;;3.50;90.40;;;3.62;74.26;101032.66;4996015;28;20042;-84
2021/01/11 06:45:51;;;;;;;49.65;24.95;;;3.50;90.60;;;3.58;74.64;101021.28;4997963;28;20449;-84
2021/01/11 06:48:20;;;;;;;49.05;24.67;;;3.50;90.50;;;3.59;74.55;101028.34;4998473;28;20065;-84
2021/01/11 06:50:49;;;;;;;48.15;25.95;;;3.60;90.60;;;3.62;74.93;101027.25;4999039;28;20074;-84
2021/01/11 06:53:27;;;;;;;44.40;24.52;;;3.60;90.60;;;3.62;75.07;101021.88;4997866;28;20077;-84
2021/01/11 06:56:05;;;;;;;48.83;25.58;;;3.60;90.50;;;3.63;74.43;101023.56;4998682;28;20042;-85
2021/01/11 06:58:34;;;;;;;44.67;23.40;;;3.60;90.50;;;3.67;74.43;101009.72;4999757;28;20545;-84
2021/01/11 07:01:08;;;;;;;47.35;24.52;;;3.60;90.60;;;3.64;74.84;101014.53;5001028;28;20050;-84
2021/01/11 07:03:53;;;;;;;45.65;25.27;;;3.70;90.50;;;3.65;74.10;101016.22;5001340;28;20507;-84
2021/01/11 07:06:33;;;;;;;50.08;24.88;;;3.60;90.50;;;3.70;74.84;101008.63;5001365;28;20045;-84
2021/01/11 07:09:13;;;;;;;45.03;25.17;;;3.60;90.60;;;3.70;74.21;101019.41;5000889;28;20065;-84
2021/01/11 07:11:42;;;;;;;43.85;24.63;;;3.50;90.60;;;3.69;74.35;101017.69;5002535;28;20050;-84
2021/01/11 07:14:10;;;;;;;47.97;25.80;;;3.60;90.70;;;3.67;74.90;101003.50;5000505;28;20089;-84
2021/01/11 07:16:39;;;;;;;44.88;25.35;;;3.60;90.60;;;3.61;74.61;101014.78;4999010;28;20047;-85
2021/01/11 07:19:06;;;;;;;41.70;24.83;;;3.60;90.80;;;3.64;74.65;101014.53;4994772;28;20054;-86
2021/01/11 07:21:35;;;;;;;47.20;24.48;;;3.60;90.80;;;3.64;74.40;101014.53;4996511;28;20042;-86
2021/01/11 07:24:04;;;;;;;47.20;24.83;;;3.60;90.90;;;3.62;74.78;101033.50;4997212;28;20046;-86
2021/01/11 07:26:33;;;;;;;42.47;24.27;;;3.60;91.00;;;3.66;75.27;101028.72;4996348;28;20136;-86
2021/01/11 07:29:04;;;;;;;44.05;23.73;;;3.60;91.10;;;3.67;75.31;101019.66;4996690;28;20084;-85
2021/01/11 07:31:34;;;;;;;41.78;24.17;;;3.60;91.00;;;3.72;75.41;101012.06;4980060;28;20085;-83
2021/01/11 07:34:06;;;;;;;41.00;23.00;;;3.60;91.00;;;3.70;74.30;101012.16;4998681;28;20046;-83
2021/01/11 07:36:39;;;;;;;47.85;23.27;;;3.60;91.00;;;3.70;75.22;101009.47;4999007;28;20078;-83
2021/01/11 07:39:11;;;;;;;42.67;22.38;;;3.90;91.20;;;3.73;74.99;101002.97;4997846;28;20046;-83
2021/01/11 07:41:41;;;;;;;38.95;22.17;;;3.60;91.10;;;3.71;74.84;101004.94;4999076;28;20421;-83
2021/01/11 07:44:24;;;;;;;37.58;20.52;;;3.70;91.10;;;3.72;75.00;101002.13;4998004;28;20430;-82
2021/01/11 07:46:57;;;;;;;43.08;22.85;;;3.70;91.10;;;3.70;74.88;101009.47;4991169;28;20046;-82
2021/01/11 07:49:25;;;;;;;43.35;23.65;;;3.70;91.10;;;3.74;75.40;101006.53;5000244;28;20045;-82
2021/01/11 07:51:54;;;;;;;41.10;22.25;;;3.70;91.20;;;3.74;75.40;100998.47;4999087;28;20060;-82
2021/01/11 07:54:22;;;;;;;47.10;23.77;;;3.70;91.10;;;3.72;75.13;100999.44;4998482;28;20884;-82
2021/01/11 07:56:51;;;;;;;41.58;22.80;;;3.70;91.10;;;3.79;75.28;100998.91;4998894;28;20084;-82
2021/01/11 07:59:19;;;;;;;39.70;22.75;;;3.70;91.10;;;3.80;75.50;100998.78;4998643;28;20050;-82
2021/01/11 08:01:48;;;;;;;38.70;22.95;;;3.70;91.30;;;3.80;74.85;100987.19;4981266;28;20054;-82
2021/01/11 08:04:16;;;;;;;37.92;21.48;;;3.70;91.40;;;3.77;75.08;100980.22;4997514;28;20050;-82
2021/01/11 08:07:01;;;;;;;35.42;20.70;;;3.70;91.30;;;3.79;74.86;100989.03;4991868;28;20038;-82
2021/01/11 08:09:29;;;;;;;38.88;21.40;;;3.70;91.10;;;3.76;75.09;100989.28;4961340;28;20069;-82
2021/01/11 08:12:09;;;;;;;41.65;21.73;;;3.70;91.10;;;3.68;75.21;100989.06;4979057;28;20054;-82
2021/01/11 08:14:37;;;;;;;34.25;20.63;;;3.70;91.10;;;3.65;75.57;100992.84;4988872;28;20062;-82
2021/01/11 08:17:07;;;;;;;36.20;21.02;;;3.70;91.00;;;3.67;75.52;100987.34;4997435;28;20041;-82
2021/01/11 08:19:34;;;;;;;42.45;22.52;;;3.70;91.00;;;3.67;75.46;100987.34;4988960;28;20121;-84
2021/01/11 08:22:02;;;;;;;38.33;21.98;;;3.70;91.00;;;3.65;75.66;100984.78;4998501;28;20057;-84
2021/01/11 08:24:30;;;;;;;36.13;21.13;;;3.80;90.90;;;3.71;75.29;100975.34;4995896;28;20097;-84
2021/01/11 08:27:05;;;;;;;38.15;20.95;;;3.80;91.10;;;3.67;75.65;100965.81;4985986;28;20450;-85
2021/01/11 08:29:36;;;;;;;36.47;20.40;;;3.70;90.80;;;3.69;75.06;100970.09;4989211;28;20050;-85
2021/01/11 08:32:06;;;;;;;36.88;20.10;;;3.80;90.70;;;3.70;74.89;100960.19;4995456;28;20046;-85
2021/01/11 08:34:33;;;;;;;36.00;20.37;;;3.80;90.50;;;3.66;75.13;100964.97;4996898;28;20120;-85
2021/01/11 08:37:00;;;;;;;36.28;19.88;;;3.70;90.60;;;3.72;74.72;100964.44;4995783;28;20120;-86
2021/01/11 08:39:27;;;;;;;42.33;20.33;;;3.80;90.30;;;3.65;74.79;100962.41;4990687;28;20046;-84
2021/01/11 08:41:55;;;;;;;35.22;20.17;;;3.70;90.40;;;3.59;74.92;100954.84;4986207;28;20050;-87
2021/01/11 08:44:31;;;;;;;36.95;19.73;;;3.70;90.20;;;3.66;75.09;100956.91;4981213;28;20161;-87
2021/01/11 08:47:07;;;;;;;35.78;20.45;;;3.70;90.20;;;3.60;74.86;100961.91;4979336;28;20523;-86
2021/01/11 08:49:54;;;;;;;36.50;19.95;;;3.70;90.50;;;3.65;74.96;100957.03;4993005;28;20042;-86
2021/01/11 08:52:28;;;;;;;35.85;19.80;;;3.70;90.40;;;3.67;74.78;100934.34;4986100;28;20047;-82
2021/01/11 08:54:56;;;;;;;33.75;19.50;;;3.70;90.50;;;3.65;75.31;100930.09;4956954;28;20081;-86
2021/01/11 08:57:27;;;;;;;34.80;19.20;;;3.70;90.40;;;3.69;74.05;100934.25;4990665;28;20411;-86
2021/01/11 08:59:54;;;;;;;44.67;21.02;;;3.80;90.20;;;3.68;74.65;100930.69;4989559;28;20134;-86
2021/01/11 09:02:27;;;;;;;35.20;18.67;;;3.70;90.10;;;3.70;74.94;100933.28;4974163;28;20042;-85
2021/01/11 09:04:54;;;;;;;37.10;21.27;;;3.70;90.10;;;3.70;74.71;100927.88;4971770;28;20117;-85
2021/01/11 09:07:33;;;;;;;40.35;20.35;;;3.80;90.30;;;3.80;75.13;100934.19;4992330;28;20081;-86
2021/01/11 09:10:17;;;;;;;38.35;19.08;;;3.80;90.40;;;3.84;75.02;100930.25;4981061;28;20065;-86
2021/01/11 09:12:44;;;;;;;38.88;20.05;;;3.80;90.40;;;3.86;74.91;100933.66;4989374;28;20137;-87
2021/01/11 09:15:13;;;;;;;39.35;21.50;;;3.80;90.30;;;3.89;74.89;100919.94;4975394;28;20038;-87
2021/01/11 09:17:41;;;;;;;41.28;21.85;;;3.80;90.50;;;3.91;74.74;100912.59;4975067;28;20057;-87
2021/01/11 09:20:09;;;;;;;33.88;19.15;;;3.80;90.60;;;3.97;74.75;100926.50;4966744;28;20085;-88
2021/01/11 09:22:39;;;;;;;37.85;20.23;;;3.80;90.50;;;3.96;74.73;100938.25;4987044;28;20106;-88
2021/01/11 09:25:10;;;;;;;38.80;20.60;;;3.80;90.60;;;3.91;74.23;100939.50;4957057;28;20209;-87
2021/01/11 09:27:39;;;;;;;35.50;18.25;;;3.90;90.60;;;3.88;74.72;100947.88;4975843;28;20066;-87
2021/01/11 09:30:09;;;;;;;34.30;19.02;;;3.90;90.30;;;3.83;74.76;100954.63;4974043;28;20039;-86
2021/01/11 09:32:36;;;;;;;35.42;18.73;;;3.90;90.00;;;3.90;74.41;100961.19;4986120;28;20037;-88
2021/01/11 09:35:06;;;;;;;40.17;19.40;;;4.10;90.30;;;3.85;74.48;100961.56;4985593;28;20043;-87
2021/01/11 09:37:33;;;;;;;35.85;18.83;;;3.90;90.10;;;3.90;74.68;100956.66;4974964;28;20058;-87
2021/01/11 09:39:59;;;;;;;34.42;19.33;;;3.90;90.10;;;3.97;74.33;100953.44;4975765;28;20077;-87
2021/01/11 09:42:26;;;;;;;33.97;17.98;;;4.00;90.00;;;3.94;74.62;100949.19;4987404;28;20053;-87
2021/01/11 09:44:53;;;;;;;30.85;17.05;;;3.90;90.00;;;3.99;74.41;100954.16;4982927;28;20050;-87
2021/01/11 09:47:20;;;;;;;34.30;17.63;;;3.90;90.10;;;4.01;74.36;100952.19;4984418;28;20042;-87
2021/01/11 09:49:47;;;;;;;34.80;19.05;;;3.90;90.10;;;4.01;73.88;100957.56;4975245;28;20734;-87
2021/01/11 09:52:15;;;;;;;34.70;17.80;;;3.90;90.10;;;3.96;74.24;100954.41;4991994;28;20447;-87
2021/01/11 09:54:41;;;;;;;30.33;15.73;;;3.90;89.90;;;3.91;73.55;100955.66;4992254;28;20057;-87
2021/01/11 09:57:10;;;;;;;32.35;16.48;;;4.00;89.40;;;3.87;73.28;100965.00;4975399;28;20064;-87
2021/01/11 09:59:37;;;;;;;32.45;16.63;;;4.10;89.20;;;3.90;73.90;100962.06;4992884;28;20068;-87
2021/01/11 10:02:04;;;;;;;28.48;15.43;;;4.00;89.00;;;3.91;73.29;100958.34;4993078;28;20495;-87
2021/01/11 10:04:31;;;;;;;29.55;15.27;;;4.00;88.60;;;3.95;73.19;100958.09;4975421;28;20050;-87
2021/01/11 10:06:58;;;;;;;28.50;15.55;;;3.90;88.60;;;3.88;72.94;100953.25;4965387;28;20051;-87
2021/01/11 10:09:28;;;;;;;28.13;14.70;;;4.00;88.80;;;3.87;72.95;100956.06;4978736;28;20078;-87
2021/01/11 10:11:57;;;;;;;27.38;14.75;;;4.00;88.40;;;3.94;73.20;100956.38;4992275;28;20046;-88
2021/01/11 10:14:24;;;;;;;27.45;14.05;;;3.90;88.50;;;3.92;71.92;100943.94;4974508;28;20462;-88
2021/01/11 10:16:51;;;;;;;27.58;14.73;;;3.90;88.30;;;3.93;73.37;100944.78;4991526;28;20043;-88
2021/01/11 10:19:20;;;;;;;29.30;13.57;;;3.90;88.60;;;3.98;72.94;100936.28;4991742;28;20088;-87
2021/01/11 10:21:48;;;;;;;24.55;13.63;;;4.00;88.80;;;3.90;72.96;100945.91;4992480;28;20840;-86
2021/01/11 10:24:17;;;;;;;25.40;13.20;;;4.00;88.30;;;3.88;72.82;100945.19;4972899;28;20042;-86